Seymour Johnson Air Force Base Goldsboro US
ICAO: KGSB
IATA: GSB
Category: Large
Scheduled Services: No

Elevation: 109 ft
TransAlt. 18000 ft.

Airport Communications:
APP:119.7
ATIS:31.762
CLNC DEL:128.025
DEP:119.7
GND:138.1
ACC SOF:37.61
PMSV METRO:32.392
916TH COMD POST:31.1
4FW COMD POST:31.1
PTD:37.22
TWR:126.25

KGSB Zoom In..

If you have problems with the map follow the link
https://www.worldairports.se/pages/airport.php?
ICAO=KGSB

Runways:

(A) RW 08 length 11760 ft width 300 ft
ILS 109.30 / hdg 81

(B) RW 26 length 11760 ft width 300 ft
ILS 109.90 / hdg 261

Location; KGSB
Day. 22 / Time. 09.56 Zulu
* Altimeter: 30.38
* Temperature: -02° c. -28.4°f.
* Wind from: 030° Speed 06 kn.
Dewpoint: -08° c.
Visibility: 10 Statute Miles.
Clouds: Clear (automated report).

KGSB 220956Z 03006KT 10SM CLR M02/M08 A3038 RMK AO2A SLP292 T10251082 $


Wind From 030°
Speed 06 kn.

 
 
jpsmedia worldairports.se 2020   terms of use